sensor_id;sensor_type;location;lat;lon;timestamp;temperature;humidity
20147;DHT22;10234;50.856;15.716;2022-12-07T00:03:02;-0.10;99.90
20147;DHT22;10234;50.856;15.716;2022-12-07T00:05:30;0.30;99.90
20147;DHT22;10234;50.856;15.716;2022-12-07T00:07:56;0.60;99.90
20147;DHT22;10234;50.856;15.716;2022-12-07T00:12:50;0.80;99.90
20147;DHT22;10234;50.856;15.716;2022-12-07T00:17:46;0.60;99.90
20147;DHT22;10234;50.856;15.716;2022-12-07T00:20:12;0.40;99.90
20147;DHT22;10234;50.856;15.716;2022-12-07T00:22:39;0.70;99.90
20147;DHT22;10234;50.856;15.716;2022-12-07T00:25:06;0.60;99.90
20147;DHT22;10234;50.856;15.716;2022-12-07T00:30:00;0.60;99.90
20147;DHT22;10234;50.856;15.716;2022-12-07T00:34:56;0.50;99.90
20147;DHT22;10234;50.856;15.716;2022-12-07T00:37:22;0.30;99.90
20147;DHT22;10234;50.856;15.716;2022-12-07T00:39:49;0.80;99.90
20147;DHT22;10234;50.856;15.716;2022-12-07T00:42:16;0.40;99.90
20147;DHT22;10234;50.856;15.716;2022-12-07T00:47:10;0.80;99.90
20147;DHT22;10234;50.856;15.716;2022-12-07T00:49:37;0.60;99.90
20147;DHT22;10234;50.856;15.716;2022-12-07T00:54:32;0.60;99.90
20147;DHT22;10234;50.856;15.716;2022-12-07T00:56:59;0.80;99.90
20147;DHT22;10234;50.856;15.716;2022-12-07T01:06:47;0.60;99.90
20147;DHT22;10234;50.856;15.716;2022-12-07T01:09:15;0.70;99.90
20147;DHT22;10234;50.856;15.716;2022-12-07T01:11:42;0.60;99.90
20147;DHT22;10234;50.856;15.716;2022-12-07T01:14:09;0.70;99.90
20147;DHT22;10234;50.856;15.716;2022-12-07T01:16:35;0.50;99.90
20147;DHT22;10234;50.856;15.716;2022-12-07T01:21:32;0.90;99.90
20147;DHT22;10234;50.856;15.716;2022-12-07T01:24:02;0.80;99.90
20147;DHT22;10234;50.856;15.716;2022-12-07T01:26:30;0.90;99.90
20147;DHT22;10234;50.856;15.716;2022-12-07T01:28:57;0.80;99.90
20147;DHT22;10234;50.856;15.716;2022-12-07T01:31:26;0.80;99.90
20147;DHT22;10234;50.856;15.716;2022-12-07T01:33:55;0.60;99.90
20147;DHT22;10234;50.856;15.716;2022-12-07T01:36:23;0.70;99.90
20147;DHT22;10234;50.856;15.716;2022-12-07T01:38:55;0.80;99.90
20147;DHT22;10234;50.856;15.716;2022-12-07T01:41:23;1.00;99.90
20147;DHT22;10234;50.856;15.716;2022-12-07T01:46:57;0.30;99.90
20147;DHT22;10234;50.856;15.716;2022-12-07T01:49:30;0.80;99.90
20147;DHT22;10234;50.856;15.716;2022-12-07T01:52:05;0.70;99.90
20147;DHT22;10234;50.856;15.716;2022-12-07T01:54:35;0.60;99.90
20147;DHT22;10234;50.856;15.716;2022-12-07T01:57:03;0.70;99.90
20147;DHT22;10234;50.856;15.716;2022-12-07T01:59:31;0.90;99.90
20147;DHT22;10234;50.856;15.716;2022-12-07T02:02:02;0.70;99.90
20147;DHT22;10234;50.856;15.716;2022-12-07T02:04:30;0.70;99.90
20147;DHT22;10234;50.856;15.716;2022-12-07T02:09:25;1.10;99.90
20147;DHT22;10234;50.856;15.716;2022-12-07T02:11:52;0.70;99.90
20147;DHT22;10234;50.856;15.716;2022-12-07T02:14:20;0.90;99.90
20147;DHT22;10234;50.856;15.716;2022-12-07T02:16:55;0.80;99.90
20147;DHT22;10234;50.856;15.716;2022-12-07T02:25:36;0.70;99.90
20147;DHT22;10234;50.856;15.716;2022-12-07T02:28:13;0.70;99.90
20147;DHT22;10234;50.856;15.716;2022-12-07T02:30:48;0.80;99.90
20147;DHT22;10234;50.856;15.716;2022-12-07T02:33:18;0.50;99.90
20147;DHT22;10234;50.856;15.716;2022-12-07T02:35:53;0.60;99.90
20147;DHT22;10234;50.856;15.716;2022-12-07T02:40:55;0.80;99.90
20147;DHT22;10234;50.856;15.716;2022-12-07T02:43:25;0.60;99.90
20147;DHT22;10234;50.856;15.716;2022-12-07T02:45:56;0.60;99.90
20147;DHT22;10234;50.856;15.716;2022-12-07T02:48:25;0.50;99.90
20147;DHT22;10234;50.856;15.716;2022-12-07T02:50:54;0.50;99.90
20147;DHT22;10234;50.856;15.716;2022-12-07T02:53:36;0.70;99.90
20147;DHT22;10234;50.856;15.716;2022-12-07T02:56:08;0.70;99.90
20147;DHT22;10234;50.856;15.716;2022-12-07T02:58:48;0.70;99.90
20147;DHT22;10234;50.856;15.716;2022-12-07T03:01:25;0.70;99.90
20147;DHT22;10234;50.856;15.716;2022-12-07T03:03:59;0.60;99.90
20147;DHT22;10234;50.856;15.716;2022-12-07T03:06:32;0.80;99.90
20147;DHT22;10234;50.856;15.716;2022-12-07T03:09:09;0.60;99.90
20147;DHT22;10234;50.856;15.716;2022-12-07T03:11:42;0.60;99.90
20147;DHT22;10234;50.856;15.716;2022-12-07T03:14:15;0.60;99.90
20147;DHT22;10234;50.856;15.716;2022-12-07T03:16:49;0.60;99.90
20147;DHT22;10234;50.856;15.716;2022-12-07T03:19:20;0.60;99.90
20147;DHT22;10234;50.856;15.716;2022-12-07T03:21:53;0.80;99.90
20147;DHT22;10234;50.856;15.716;2022-12-07T03:24:26;0.50;99.90
20147;DHT22;10234;50.856;15.716;2022-12-07T03:26:57;0.70;99.90
20147;DHT22;10234;50.856;15.716;2022-12-07T03:29:28;0.50;99.90
20147;DHT22;10234;50.856;15.716;2022-12-07T03:32:02;0.60;99.90
20147;DHT22;10234;50.856;15.716;2022-12-07T03:34:33;0.60;99.90
20147;DHT22;10234;50.856;15.716;2022-12-07T03:37:04;0.30;99.90
20147;DHT22;10234;50.856;15.716;2022-12-07T03:39:35;0.70;99.90
20147;DHT22;10234;50.856;15.716;2022-12-07T03:42:05;0.60;99.90
20147;DHT22;10234;50.856;15.716;2022-12-07T03:44:33;0.30;99.90
20147;DHT22;10234;50.856;15.716;2022-12-07T03:47:05;0.60;99.90
20147;DHT22;10234;50.856;15.716;2022-12-07T03:49:39;0.60;99.90
20147;DHT22;10234;50.856;15.716;2022-12-07T03:52:12;0.70;99.90
20147;DHT22;10234;50.856;15.716;2022-12-07T03:54:45;0.90;99.90
20147;DHT22;10234;50.856;15.716;2022-12-07T03:57:14;0.70;99.90
20147;DHT22;10234;50.856;15.716;2022-12-07T03:59:43;0.90;99.90
20147;DHT22;10234;50.856;15.716;2022-12-07T04:02:13;0.70;99.90
20147;DHT22;10234;50.856;15.716;2022-12-07T04:04:40;0.80;99.90
20147;DHT22;10234;50.856;15.716;2022-12-07T04:07:08;0.30;99.90
20147;DHT22;10234;50.856;15.716;2022-12-07T04:09:36;1.00;99.90
20147;DHT22;10234;50.856;15.716;2022-12-07T04:16:58;1.10;99.90
20147;DHT22;10234;50.856;15.716;2022-12-07T04:19:29;0.70;99.90
20147;DHT22;10234;50.856;15.716;2022-12-07T04:21:58;0.60;99.90
20147;DHT22;10234;50.856;15.716;2022-12-07T04:24:25;1.00;99.90
20147;DHT22;10234;50.856;15.716;2022-12-07T04:34:14;0.90;99.90
20147;DHT22;10234;50.856;15.716;2022-12-07T04:39:18;0.80;99.90
20147;DHT22;10234;50.856;15.716;2022-12-07T04:41:45;0.80;99.90
20147;DHT22;10234;50.856;15.716;2022-12-07T04:44:13;0.60;99.90
20147;DHT22;10234;50.856;15.716;2022-12-07T04:46:41;0.70;99.90
20147;DHT22;10234;50.856;15.716;2022-12-07T04:49:08;0.80;99.90
20147;DHT22;10234;50.856;15.716;2022-12-07T04:51:35;0.70;99.90
20147;DHT22;10234;50.856;15.716;2022-12-07T04:56:30;0.80;99.90
20147;DHT22;10234;50.856;15.716;2022-12-07T04:58:57;1.00;99.90
20147;DHT22;10234;50.856;15.716;2022-12-07T05:01:24;0.40;99.90
20147;DHT22;10234;50.856;15.716;2022-12-07T05:06:18;0.70;99.90
20147;DHT22;10234;50.856;15.716;2022-12-07T05:08:46;1.00;99.90
20147;DHT22;10234;50.856;15.716;2022-12-07T05:11:14;0.80;99.90
20147;DHT22;10234;50.856;15.716;2022-12-07T05:14:02;0.70;99.90
20147;DHT22;10234;50.856;15.716;2022-12-07T05:16:29;0.80;99.90
20147;DHT22;10234;50.856;15.716;2022-12-07T05:18:57;0.60;99.90
20147;DHT22;10234;50.856;15.716;2022-12-07T05:21:24;0.80;99.90
20147;DHT22;10234;50.856;15.716;2022-12-07T05:23:51;0.70;99.90
20147;DHT22;10234;50.856;15.716;2022-12-07T05:26:19;0.80;99.90
20147;DHT22;10234;50.856;15.716;2022-12-07T05:28:50;0.90;99.90
20147;DHT22;10234;50.856;15.716;2022-12-07T05:31:17;1.40;99.90
20147;DHT22;10234;50.856;15.716;2022-12-07T05:33:44;1.10;99.90
20147;DHT22;10234;50.856;15.716;2022-12-07T05:36:11;0.20;99.90
20147;DHT22;10234;50.856;15.716;2022-12-07T05:38:37;0.90;99.90
20147;DHT22;10234;50.856;15.716;2022-12-07T05:41:06;0.70;99.90
20147;DHT22;10234;50.856;15.716;2022-12-07T05:43:34;1.00;99.90
20147;DHT22;10234;50.856;15.716;2022-12-07T05:46:00;0.60;99.90
20147;DHT22;10234;50.856;15.716;2022-12-07T05:48:27;0.70;99.90
20147;DHT22;10234;50.856;15.716;2022-12-07T05:50:54;0.60;99.90
20147;DHT22;10234;50.856;15.716;2022-12-07T05:55:47;0.90;99.90
20147;DHT22;10234;50.856;15.716;2022-12-07T06:01:00;0.90;99.90
20147;DHT22;10234;50.856;15.716;2022-12-07T06:05:54;0.60;99.90
20147;DHT22;10234;50.856;15.716;2022-12-07T06:08:21;1.10;99.90
20147;DHT22;10234;50.856;15.716;2022-12-07T06:10:48;1.20;99.90
20147;DHT22;10234;50.856;15.716;2022-12-07T06:23:27;-0.10;99.90
20147;DHT22;10234;50.856;15.716;2022-12-07T06:25:54;0.00;99.90
20147;DHT22;10234;50.856;15.716;2022-12-07T06:35:43;-0.20;99.90
20147;DHT22;10234;50.856;15.716;2022-12-07T06:40:37;-0.30;99.90
20147;DHT22;10234;50.856;15.716;2022-12-07T06:55:21;-0.20;99.90
20147;DHT22;10234;50.856;15.716;2022-12-07T07:00:16;-0.20;99.90
20147;DHT22;10234;50.856;15.716;2022-12-07T07:07:38;-0.40;99.90
20147;DHT22;10234;50.856;15.716;2022-12-07T07:10:06;-0.30;99.90
20147;DHT22;10234;50.856;15.716;2022-12-07T07:12:33;-0.30;99.90
20147;DHT22;10234;50.856;15.716;2022-12-07T07:15:00;-0.20;99.90
20147;DHT22;10234;50.856;15.716;2022-12-07T07:19:54;-0.50;99.90
20147;DHT22;10234;50.856;15.716;2022-12-07T07:22:20;-0.10;99.90
20147;DHT22;10234;50.856;15.716;2022-12-07T07:24:48;-0.20;99.90
20147;DHT22;10234;50.856;15.716;2022-12-07T07:27:15;-0.20;99.90
20147;DHT22;10234;50.856;15.716;2022-12-07T07:34:37;-0.30;99.90
20147;DHT22;10234;50.856;15.716;2022-12-07T07:37:04;0.10;99.90
20147;DHT22;10234;50.856;15.716;2022-12-07T07:39:31;-0.10;99.90
20147;DHT22;10234;50.856;15.716;2022-12-07T07:41:59;0.10;99.90
20147;DHT22;10234;50.856;15.716;2022-12-07T07:44:26;1.00;99.90
20147;DHT22;10234;50.856;15.716;2022-12-07T07:51:47;3.20;99.90
20147;DHT22;10234;50.856;15.716;2022-12-07T07:59:09;5.30;99.90
20147;DHT22;10234;50.856;15.716;2022-12-07T08:01:36;5.50;99.90
20147;DHT22;10234;50.856;15.716;2022-12-07T08:04:03;4.50;99.90
20147;DHT22;10234;50.856;15.716;2022-12-07T08:23:42;3.70;99.90
20147;DHT22;10234;50.856;15.716;2022-12-07T08:26:11;3.90;99.90
20147;DHT22;10234;50.856;15.716;2022-12-07T08:28:38;3.90;99.90
20147;DHT22;10234;50.856;15.716;2022-12-07T08:31:07;5.80;99.90
20147;DHT22;10234;50.856;15.716;2022-12-07T08:33:36;7.90;99.90
20147;DHT22;10234;50.856;15.716;2022-12-07T08:36:04;9.60;99.90
20147;DHT22;10234;50.856;15.716;2022-12-07T08:40:59;10.20;99.90
20147;DHT22;10234;50.856;15.716;2022-12-07T08:45:57;9.50;94.40
20147;DHT22;10234;50.856;15.716;2022-12-07T08:48:31;9.70;96.10
20147;DHT22;10234;50.856;15.716;2022-12-07T08:51:01;8.50;95.40
20147;DHT22;10234;50.856;15.716;2022-12-07T08:53:28;7.70;98.70
20147;DHT22;10234;50.856;15.716;2022-12-07T08:55:56;6.80;99.90
20147;DHT22;10234;50.856;15.716;2022-12-07T09:08:13;5.50;99.90
20147;DHT22;10234;50.856;15.716;2022-12-07T09:13:07;5.50;99.90
20147;DHT22;10234;50.856;15.716;2022-12-07T09:27:55;3.80;99.90
20147;DHT22;10234;50.856;15.716;2022-12-07T09:35:17;2.70;99.90
20147;DHT22;10234;50.856;15.716;2022-12-07T09:42:42;3.60;99.90
20147;DHT22;10234;50.856;15.716;2022-12-07T09:45:15;3.40;99.90
20147;DHT22;10234;50.856;15.716;2022-12-07T09:50:13;3.20;99.90
20147;DHT22;10234;50.856;15.716;2022-12-07T09:52:42;3.10;99.90
20147;DHT22;10234;50.856;15.716;2022-12-07T09:57:40;3.10;99.90
20147;DHT22;10234;50.856;15.716;2022-12-07T10:00:12;3.10;99.90
20147;DHT22;10234;50.856;15.716;2022-12-07T10:02:41;3.00;99.90
20147;DHT22;10234;50.856;15.716;2022-12-07T10:05:13;3.00;99.90
20147;DHT22;10234;50.856;15.716;2022-12-07T10:07:42;3.00;99.90
20147;DHT22;10234;50.856;15.716;2022-12-07T10:10:14;3.00;99.90
20147;DHT22;10234;50.856;15.716;2022-12-07T10:13:00;2.80;99.90
20147;DHT22;10234;50.856;15.716;2022-12-07T10:15:49;2.50;99.90
20147;DHT22;10234;50.856;15.716;2022-12-07T10:18:26;2.80;99.90
20147;DHT22;10234;50.856;15.716;2022-12-07T10:21:12;2.80;99.90
20147;DHT22;10234;50.856;15.716;2022-12-07T10:23:40;2.70;99.90
20147;DHT22;10234;50.856;15.716;2022-12-07T10:26:29;2.80;99.90
20147;DHT22;10234;50.856;15.716;2022-12-07T10:28:59;2.70;99.90
20147;DHT22;10234;50.856;15.716;2022-12-07T10:36:25;2.60;99.90
20147;DHT22;10234;50.856;15.716;2022-12-07T10:38:59;2.50;99.90
20147;DHT22;10234;50.856;15.716;2022-12-07T10:43:56;2.50;99.90
20147;DHT22;10234;50.856;15.716;2022-12-07T10:55:18;2.60;99.90
20147;DHT22;10234;50.856;15.716;2022-12-07T10:57:56;2.70;99.90
20147;DHT22;10234;50.856;15.716;2022-12-07T11:00:30;2.90;99.90
20147;DHT22;10234;50.856;15.716;2022-12-07T11:03:27;2.90;99.90
20147;DHT22;10234;50.856;15.716;2022-12-07T11:06:07;2.90;99.90
20147;DHT22;10234;50.856;15.716;2022-12-07T11:08:48;3.00;99.90
20147;DHT22;10234;50.856;15.716;2022-12-07T11:11:21;2.90;99.90
20147;DHT22;10234;50.856;15.716;2022-12-07T11:13:55;2.90;99.90
20147;DHT22;10234;50.856;15.716;2022-12-07T11:16:36;3.00;99.90
20147;DHT22;10234;50.856;15.716;2022-12-07T11:19:29;3.00;99.90
20147;DHT22;10234;50.856;15.716;2022-12-07T11:24:35;3.40;99.90
20147;DHT22;10234;50.856;15.716;2022-12-07T11:27:14;3.40;99.90
20147;DHT22;10234;50.856;15.716;2022-12-07T11:29:56;3.50;99.90
20147;DHT22;10234;50.856;15.716;2022-12-07T11:32:43;3.50;99.90
20147;DHT22;10234;50.856;15.716;2022-12-07T11:35:16;3.20;99.90
20147;DHT22;10234;50.856;15.716;2022-12-07T11:37:44;3.40;99.90
20147;DHT22;10234;50.856;15.716;2022-12-07T11:40:19;3.10;99.90
20147;DHT22;10234;50.856;15.716;2022-12-07T11:42:52;3.10;99.90
20147;DHT22;10234;50.856;15.716;2022-12-07T11:45:27;3.20;99.90
20147;DHT22;10234;50.856;15.716;2022-12-07T11:47:59;3.60;99.90
20147;DHT22;10234;50.856;15.716;2022-12-07T11:50:33;3.00;99.90
20147;DHT22;10234;50.856;15.716;2022-12-07T11:53:03;2.90;99.90
20147;DHT22;10234;50.856;15.716;2022-12-07T11:55:41;3.00;99.90
20147;DHT22;10234;50.856;15.716;2022-12-07T11:58:18;3.00;99.90
20147;DHT22;10234;50.856;15.716;2022-12-07T12:00:49;2.90;99.90
20147;DHT22;10234;50.856;15.716;2022-12-07T12:03:25;3.00;99.90
20147;DHT22;10234;50.856;15.716;2022-12-07T12:05:55;3.10;99.90
20147;DHT22;10234;50.856;15.716;2022-12-07T12:08:28;3.60;99.90
20147;DHT22;10234;50.856;15.716;2022-12-07T12:11:03;2.80;99.90
20147;DHT22;10234;50.856;15.716;2022-12-07T12:14:01;2.90;99.90
20147;DHT22;10234;50.856;15.716;2022-12-07T12:16:53;3.00;99.90
20147;DHT22;10234;50.856;15.716;2022-12-07T12:19:32;3.20;99.90
20147;DHT22;10234;50.856;15.716;2022-12-07T12:22:06;2.80;99.90
20147;DHT22;10234;50.856;15.716;2022-12-07T12:24:38;3.50;99.90
20147;DHT22;10234;50.856;15.716;2022-12-07T12:29:36;3.40;99.90
20147;DHT22;10234;50.856;15.716;2022-12-07T12:32:13;3.50;99.90
20147;DHT22;10234;50.856;15.716;2022-12-07T12:34:58;3.50;99.90
20147;DHT22;10234;50.856;15.716;2022-12-07T12:37:46;3.40;99.90
20147;DHT22;10234;50.856;15.716;2022-12-07T12:40:39;3.90;99.90
20147;DHT22;10234;50.856;15.716;2022-12-07T12:43:48;3.90;99.90
20147;DHT22;10234;50.856;15.716;2022-12-07T12:46:49;3.50;99.90
20147;DHT22;10234;50.856;15.716;2022-12-07T12:49:36;3.60;99.90
20147;DHT22;10234;50.856;15.716;2022-12-07T12:58:25;3.80;99.90
20147;DHT22;10234;50.856;15.716;2022-12-07T13:03:55;3.70;99.90
20147;DHT22;10234;50.856;15.716;2022-12-07T13:06:34;3.50;99.90
20147;DHT22;10234;50.856;15.716;2022-12-07T13:11:35;3.60;99.90
20147;DHT22;10234;50.856;15.716;2022-12-07T13:14:41;3.60;99.90
20147;DHT22;10234;50.856;15.716;2022-12-07T13:17:09;3.40;99.90
20147;DHT22;10234;50.856;15.716;2022-12-07T13:22:39;3.30;99.90
20147;DHT22;10234;50.856;15.716;2022-12-07T13:25:09;3.90;99.90
20147;DHT22;10234;50.856;15.716;2022-12-07T13:27:41;2.90;99.90
20147;DHT22;10234;50.856;15.716;2022-12-07T13:30:16;2.90;99.90
20147;DHT22;10234;50.856;15.716;2022-12-07T13:35:31;2.90;99.90
20147;DHT22;10234;50.856;15.716;2022-12-07T13:38:01;2.70;99.90
20147;DHT22;10234;50.856;15.716;2022-12-07T13:40:28;2.60;99.90
20147;DHT22;10234;50.856;15.716;2022-12-07T13:43:01;3.00;99.90
20147;DHT22;10234;50.856;15.716;2022-12-07T13:45:30;2.70;99.90
20147;DHT22;10234;50.856;15.716;2022-12-07T13:48:20;2.60;99.90
20147;DHT22;10234;50.856;15.716;2022-12-07T13:50:53;2.40;99.90
20147;DHT22;10234;50.856;15.716;2022-12-07T13:53:21;2.40;99.90
20147;DHT22;10234;50.856;15.716;2022-12-07T13:58:17;2.40;99.90
20147;DHT22;10234;50.856;15.716;2022-12-07T14:03:38;2.00;99.90
20147;DHT22;10234;50.856;15.716;2022-12-07T14:06:18;2.00;99.90
20147;DHT22;10234;50.856;15.716;2022-12-07T14:08:46;2.10;99.90
20147;DHT22;10234;50.856;15.716;2022-12-07T14:11:17;2.00;99.90
20147;DHT22;10234;50.856;15.716;2022-12-07T14:13:55;1.90;99.90
20147;DHT22;10234;50.856;15.716;2022-12-07T14:16:26;2.00;99.90
20147;DHT22;10234;50.856;15.716;2022-12-07T14:21:25;1.50;99.90
20147;DHT22;10234;50.856;15.716;2022-12-07T14:24:16;1.90;99.90
20147;DHT22;10234;50.856;15.716;2022-12-07T14:29:33;1.90;99.90
20147;DHT22;10234;50.856;15.716;2022-12-07T14:32:20;1.70;99.90
20147;DHT22;10234;50.856;15.716;2022-12-07T14:34:59;1.70;99.90
20147;DHT22;10234;50.856;15.716;2022-12-07T14:37:27;1.50;99.90
20147;DHT22;10234;50.856;15.716;2022-12-07T14:39:54;1.60;99.90
20147;DHT22;10234;50.856;15.716;2022-12-07T14:42:24;1.40;99.90
20147;DHT22;10234;50.856;15.716;2022-12-07T14:44:54;1.50;99.90
20147;DHT22;10234;50.856;15.716;2022-12-07T14:47:21;1.40;99.90
20147;DHT22;10234;50.856;15.716;2022-12-07T14:49:48;1.50;99.90
20147;DHT22;10234;50.856;15.716;2022-12-07T14:52:17;1.70;99.90
20147;DHT22;10234;50.856;15.716;2022-12-07T14:57:13;1.70;99.90
20147;DHT22;10234;50.856;15.716;2022-12-07T15:02:10;2.10;99.90
20147;DHT22;10234;50.856;15.716;2022-12-07T15:04:37;1.30;99.90
20147;DHT22;10234;50.856;15.716;2022-12-07T15:07:08;1.40;99.90
20147;DHT22;10234;50.856;15.716;2022-12-07T15:09:36;1.20;99.90
20147;DHT22;10234;50.856;15.716;2022-12-07T15:14:30;1.00;99.90
20147;DHT22;10234;50.856;15.716;2022-12-07T15:16:56;0.90;99.90
20147;DHT22;10234;50.856;15.716;2022-12-07T15:19:25;0.70;99.90
20147;DHT22;10234;50.856;15.716;2022-12-07T15:21:53;0.50;99.90
20147;DHT22;10234;50.856;15.716;2022-12-07T15:24:20;0.50;99.90
20147;DHT22;10234;50.856;15.716;2022-12-07T15:26:49;0.30;99.90
20147;DHT22;10234;50.856;15.716;2022-12-07T15:29:15;0.10;99.90
20147;DHT22;10234;50.856;15.716;2022-12-07T15:31:42;0.40;99.90
20147;DHT22;10234;50.856;15.716;2022-12-07T15:36:38;0.30;99.90
20147;DHT22;10234;50.856;15.716;2022-12-07T15:39:05;0.50;99.90
20147;DHT22;10234;50.856;15.716;2022-12-07T15:41:31;0.70;99.90
20147;DHT22;10234;50.856;15.716;2022-12-07T15:49:12;1.00;99.90
20147;DHT22;10234;50.856;15.716;2022-12-07T15:54:13;0.50;99.90
20147;DHT22;10234;50.856;15.716;2022-12-07T15:56:40;0.20;99.90
20147;DHT22;10234;50.856;15.716;2022-12-07T16:01:36;0.70;99.90
20147;DHT22;10234;50.856;15.716;2022-12-07T16:04:03;1.00;99.90
20147;DHT22;10234;50.856;15.716;2022-12-07T16:06:30;0.80;99.90
20147;DHT22;10234;50.856;15.716;2022-12-07T16:08:58;0.60;99.90
20147;DHT22;10234;50.856;15.716;2022-12-07T16:11:25;0.50;99.90
20147;DHT22;10234;50.856;15.716;2022-12-07T16:13:52;0.40;99.90
20147;DHT22;10234;50.856;15.716;2022-12-07T16:16:19;0.30;99.90
20147;DHT22;10234;50.856;15.716;2022-12-07T16:18:47;0.60;99.90
20147;DHT22;10234;50.856;15.716;2022-12-07T16:21:15;0.70;99.90
20147;DHT22;10234;50.856;15.716;2022-12-07T16:23:42;0.40;99.90
20147;DHT22;10234;50.856;15.716;2022-12-07T16:26:13;0.60;99.90
20147;DHT22;10234;50.856;15.716;2022-12-07T16:28:40;0.00;99.90
20147;DHT22;10234;50.856;15.716;2022-12-07T16:31:08;0.60;99.90
20147;DHT22;10234;50.856;15.716;2022-12-07T16:33:37;0.60;99.90
20147;DHT22;10234;50.856;15.716;2022-12-07T16:36:06;0.50;99.90
20147;DHT22;10234;50.856;15.716;2022-12-07T16:38:35;0.60;99.90
20147;DHT22;10234;50.856;15.716;2022-12-07T16:43:31;0.10;99.90
20147;DHT22;10234;50.856;15.716;2022-12-07T16:48:25;0.10;99.90
20147;DHT22;10234;50.856;15.716;2022-12-07T16:50:51;-0.10;99.90
20147;DHT22;10234;50.856;15.716;2022-12-07T16:53:21;0.10;99.90
20147;DHT22;10234;50.856;15.716;2022-12-07T16:58:15;0.10;99.90
20147;DHT22;10234;50.856;15.716;2022-12-07T17:10:34;0.00;99.90
20147;DHT22;10234;50.856;15.716;2022-12-07T17:13:01;0.30;99.90
20147;DHT22;10234;50.856;15.716;2022-12-07T17:33:06;0.10;99.90
20147;DHT22;10234;50.856;15.716;2022-12-07T17:35:33;0.10;99.90
20147;DHT22;10234;50.856;15.716;2022-12-07T17:47:48;-0.30;99.90
20147;DHT22;10234;50.856;15.716;2022-12-07T17:50:16;0.30;99.90
20147;DHT22;10234;50.856;15.716;2022-12-07T17:53:03;0.30;99.90
20147;DHT22;10234;50.856;15.716;2022-12-07T17:58:05;0.50;99.90
20147;DHT22;10234;50.856;15.716;2022-12-07T18:00:32;0.10;99.90
20147;DHT22;10234;50.856;15.716;2022-12-07T18:03:04;0.40;99.90
20147;DHT22;10234;50.856;15.716;2022-12-07T18:05:33;0.50;99.90
20147;DHT22;10234;50.856;15.716;2022-12-07T18:10:27;0.70;99.90
20147;DHT22;10234;50.856;15.716;2022-12-07T18:15:41;0.30;99.90
20147;DHT22;10234;50.856;15.716;2022-12-07T18:18:08;0.50;99.90
20147;DHT22;10234;50.856;15.716;2022-12-07T18:23:03;0.30;99.90
20147;DHT22;10234;50.856;15.716;2022-12-07T18:27:57;0.40;99.90
20147;DHT22;10234;50.856;15.716;2022-12-07T18:30:24;-0.20;99.90
20147;DHT22;10234;50.856;15.716;2022-12-07T18:42:41;0.70;99.90
20147;DHT22;10234;50.856;15.716;2022-12-07T18:45:08;0.30;99.90
20147;DHT22;10234;50.856;15.716;2022-12-07T18:54:58;0.20;99.90
20147;DHT22;10234;50.856;15.716;2022-12-07T18:59:54;0.60;99.90
20147;DHT22;10234;50.856;15.716;2022-12-07T19:02:21;0.80;99.90
20147;DHT22;10234;50.856;15.716;2022-12-07T19:12:12;0.20;99.90
20147;DHT22;10234;50.856;15.716;2022-12-07T19:14:39;0.30;99.90
20147;DHT22;10234;50.856;15.716;2022-12-07T19:19:36;0.20;99.90
20147;DHT22;10234;50.856;15.716;2022-12-07T19:22:03;0.20;99.90
20147;DHT22;10234;50.856;15.716;2022-12-07T19:24:31;0.20;99.90
20147;DHT22;10234;50.856;15.716;2022-12-07T19:29:28;0.40;99.90
20147;DHT22;10234;50.856;15.716;2022-12-07T19:41:45;0.60;99.90
20147;DHT22;10234;50.856;15.716;2022-12-07T19:44:14;0.60;99.90
20147;DHT22;10234;50.856;15.716;2022-12-07T19:46:43;0.70;99.90
20147;DHT22;10234;50.856;15.716;2022-12-07T19:51:41;0.60;99.90
20147;DHT22;10234;50.856;15.716;2022-12-07T19:54:09;0.50;99.90
20147;DHT22;10234;50.856;15.716;2022-12-07T20:04:03;0.50;99.90
20147;DHT22;10234;50.856;15.716;2022-12-07T20:08:57;-0.20;99.90
20147;DHT22;10234;50.856;15.716;2022-12-07T20:11:24;0.00;99.90
20147;DHT22;10234;50.856;15.716;2022-12-07T20:16:37;-0.20;99.90
20147;DHT22;10234;50.856;15.716;2022-12-07T20:24:01;0.40;99.90
20147;DHT22;10234;50.856;15.716;2022-12-07T20:46:27;-0.20;99.90
20147;DHT22;10234;50.856;15.716;2022-12-07T20:53:49;0.00;99.90
20147;DHT22;10234;50.856;15.716;2022-12-07T21:06:06;-0.40;99.90
20147;DHT22;10234;50.856;15.716;2022-12-07T21:11:06;-0.30;99.90
20147;DHT22;10234;50.856;15.716;2022-12-07T21:13:33;-0.30;99.90
20147;DHT22;10234;50.856;15.716;2022-12-07T21:16:05;-0.40;99.90
20147;DHT22;10234;50.856;15.716;2022-12-07T21:21:01;-0.20;99.90
20147;DHT22;10234;50.856;15.716;2022-12-07T21:23:28;0.00;99.90
20147;DHT22;10234;50.856;15.716;2022-12-07T21:25:56;0.00;99.90
20147;DHT22;10234;50.856;15.716;2022-12-07T21:35:44;0.30;99.90
20147;DHT22;10234;50.856;15.716;2022-12-07T21:40:38;0.60;99.90
20147;DHT22;10234;50.856;15.716;2022-12-07T21:43:06;0.30;99.90
20147;DHT22;10234;50.856;15.716;2022-12-07T21:45:33;0.60;99.90
20147;DHT22;10234;50.856;15.716;2022-12-07T22:00:18;0.30;99.90
20147;DHT22;10234;50.856;15.716;2022-12-07T22:10:08;0.00;99.90
20147;DHT22;10234;50.856;15.716;2022-12-07T22:12:35;-0.10;99.90
20147;DHT22;10234;50.856;15.716;2022-12-07T22:17:35;-0.30;99.90
20147;DHT22;10234;50.856;15.716;2022-12-07T22:22:30;-0.50;99.90
20147;DHT22;10234;50.856;15.716;2022-12-07T22:24:56;-0.30;99.90
20147;DHT22;10234;50.856;15.716;2022-12-07T22:34:46;-0.30;99.90
20147;DHT22;10234;50.856;15.716;2022-12-07T22:42:08;-1.00;99.90
20147;DHT22;10234;50.856;15.716;2022-12-07T22:47:02;-2.30;99.90
20147;DHT22;10234;50.856;15.716;2022-12-07T22:51:58;-0.80;99.90
20147;DHT22;10234;50.856;15.716;2022-12-07T22:54:24;-0.60;99.90
20147;DHT22;10234;50.856;15.716;2022-12-07T22:56:51;-0.40;99.90
20147;DHT22;10234;50.856;15.716;2022-12-07T22:59:18;-0.70;99.90
20147;DHT22;10234;50.856;15.716;2022-12-07T23:04:12;-0.10;99.90
20147;DHT22;10234;50.856;15.716;2022-12-07T23:09:10;0.00;99.90
20147;DHT22;10234;50.856;15.716;2022-12-07T23:11:39;0.20;99.90
20147;DHT22;10234;50.856;15.716;2022-12-07T23:14:36;0.20;99.90
20147;DHT22;10234;50.856;15.716;2022-12-07T23:19:31;0.30;99.90
20147;DHT22;10234;50.856;15.716;2022-12-07T23:21:58;0.20;99.90
20147;DHT22;10234;50.856;15.716;2022-12-07T23:26:54;0.20;99.90
20147;DHT22;10234;50.856;15.716;2022-12-07T23:29:20;0.20;99.90
20147;DHT22;10234;50.856;15.716;2022-12-07T23:31:48;0.30;99.90
20147;DHT22;10234;50.856;15.716;2022-12-07T23:36:42;0.50;99.90
20147;DHT22;10234;50.856;15.716;2022-12-07T23:39:09;0.60;99.90
20147;DHT22;10234;50.856;15.716;2022-12-07T23:46:32;0.30;99.90
20147;DHT22;10234;50.856;15.716;2022-12-07T23:49:00;0.80;99.90
20147;DHT22;10234;50.856;15.716;2022-12-07T23:51:28;0.30;99.90
20147;DHT22;10234;50.856;15.716;2022-12-07T23:53:56;0.40;99.90